createdAt,value
2019-03-02T00:00:12.832Z,2.87
2019-03-02T00:02:41.419Z,3.30
2019-03-02T00:05:09.971Z,3.20
2019-03-02T00:07:38.617Z,2.90
2019-03-02T00:10:10.012Z,2.80
2019-03-02T00:12:38.795Z,3.70
2019-03-02T00:15:09.091Z,3.00
2019-03-02T00:17:37.666Z,3.07
2019-03-02T00:20:07.262Z,3.20
2019-03-02T00:22:39.426Z,3.10
2019-03-02T00:25:07.671Z,3.57
2019-03-02T00:27:36.257Z,2.90
2019-03-02T00:30:17.624Z,3.20
2019-03-02T00:32:46.030Z,3.57
2019-03-02T00:35:14.762Z,3.17
2019-03-02T00:37:43.343Z,2.80
2019-03-02T00:40:12.151Z,2.97
2019-03-02T00:42:40.749Z,2.80
2019-03-02T00:45:14.183Z,2.97
2019-03-02T00:47:43.878Z,3.27
2019-03-02T00:50:12.683Z,3.80
2019-03-02T00:52:41.261Z,3.17
2019-03-02T00:55:10.259Z,4.30
2019-03-02T00:57:38.858Z,3.30
2019-03-02T01:00:15.282Z,3.50
2019-03-02T01:02:43.185Z,3.50
2019-03-02T01:05:12.391Z,3.50
2019-03-02T01:07:41.018Z,3.57
2019-03-02T01:10:12.538Z,3.17
2019-03-02T01:12:43.867Z,3.37
2019-03-02T01:15:13.596Z,3.60
2019-03-02T01:17:42.234Z,3.37
2019-03-02T01:20:12.661Z,3.63
2019-03-02T01:22:41.358Z,3.70
2019-03-02T01:25:13.429Z,3.73
2019-03-02T01:27:42.578Z,3.50
2019-03-02T01:30:15.911Z,3.50
2019-03-02T01:32:44.539Z,3.80
2019-03-02T01:35:13.188Z,3.33
2019-03-02T01:37:44.042Z,3.70
2019-03-02T01:40:15.209Z,3.27
2019-03-02T01:42:43.770Z,3.50
2019-03-02T01:45:14.467Z,3.50
2019-03-02T01:47:43.290Z,3.70
2019-03-02T01:50:14.115Z,3.57
2019-03-02T01:52:42.686Z,3.40
2019-03-02T01:55:12.301Z,3.80
2019-03-02T01:57:40.865Z,4.00
2019-03-02T02:00:15.269Z,3.60
2019-03-02T02:02:43.839Z,3.60
2019-03-02T02:05:12.559Z,3.90
2019-03-02T02:07:41.186Z,3.60
2019-03-02T02:10:12.312Z,4.10
2019-03-02T02:12:40.870Z,4.17
2019-03-02T02:15:12.593Z,3.93
2019-03-02T02:17:41.151Z,4.00
2019-03-02T02:20:14.585Z,3.60
2019-03-02T02:22:42.170Z,3.70
2019-03-02T02:25:13.642Z,2.73
2019-03-02T02:27:42.194Z,3.30
2019-03-02T02:30:24.493Z,2.80
2019-03-02T02:32:51.810Z,3.10
2019-03-02T02:35:20.393Z,3.07
2019-03-02T02:37:48.946Z,2.93
2019-03-02T02:40:17.766Z,3.43
2019-03-02T02:42:46.410Z,2.73
2019-03-02T02:45:21.518Z,3.00
2019-03-02T02:47:51.999Z,2.33
2019-03-02T02:50:28.166Z,2.50
2019-03-02T02:52:51.397Z,2.47
2019-03-02T02:55:20.110Z,2.53
2019-03-02T02:57:48.673Z,2.50
2019-03-02T03:00:19.927Z,2.20
2019-03-02T03:02:48.559Z,2.70
2019-03-02T03:05:18.792Z,2.50
2019-03-02T03:07:53.214Z,2.50
2019-03-02T03:10:36.072Z,2.63
2019-03-02T03:13:04.755Z,2.57
2019-03-02T03:15:38.824Z,2.60
2019-03-02T03:18:12.625Z,2.50
2019-03-02T03:20:37.994Z,2.50
2019-03-02T03:23:06.565Z,2.27
2019-03-02T03:25:35.216Z,2.20
2019-03-02T03:28:04.147Z,2.07
2019-03-02T03:30:36.635Z,2.17
2019-03-02T03:33:03.006Z,2.30
2019-03-02T03:35:31.555Z,2.50
2019-03-02T03:38:02.267Z,2.57
2019-03-02T03:40:30.842Z,2.30
2019-03-02T03:43:03.102Z,2.20
2019-03-02T03:45:29.692Z,2.23
2019-03-02T03:47:58.256Z,2.30
2019-03-02T03:50:26.848Z,2.40
2019-03-02T03:52:55.393Z,2.87
2019-03-02T03:55:27.023Z,2.20
2019-03-02T03:57:59.838Z,2.57
2019-03-02T04:00:24.402Z,2.30
2019-03-02T04:02:53.053Z,2.80
2019-03-02T04:05:21.623Z,2.63
2019-03-02T04:07:51.492Z,2.57
2019-03-02T04:10:25.757Z,2.57
2019-03-02T04:12:50.775Z,2.60
2019-03-02T04:15:19.390Z,2.40
2019-03-02T04:17:47.952Z,2.60
2019-03-02T04:20:25.597Z,2.80
2019-03-02T04:22:55.893Z,2.83
2019-03-02T04:25:24.464Z,2.53
2019-03-02T04:27:54.325Z,3.00
2019-03-02T04:30:30.772Z,2.90
2019-03-02T04:32:53.452Z,2.70
2019-03-02T04:35:22.016Z,3.23
2019-03-02T04:37:50.598Z,2.97
2019-03-02T04:40:23.342Z,3.13
2019-03-02T04:42:50.185Z,2.80
2019-03-02T04:45:19.647Z,2.90
2019-03-02T04:47:48.234Z,3.13
2019-03-02T04:50:16.790Z,3.27
2019-03-02T04:52:46.663Z,3.47
2019-03-02T04:55:15.645Z,3.87
2019-03-02T04:57:44.236Z,3.50
2019-03-02T05:00:15.205Z,3.40
2019-03-02T05:02:43.783Z,3.33
2019-03-02T05:05:12.418Z,3.20
2019-03-02T05:07:40.993Z,3.20
2019-03-02T05:10:11.198Z,3.57
2019-03-02T05:12:39.776Z,3.43
2019-03-02T05:15:11.969Z,3.70
2019-03-02T05:17:43.032Z,3.70
2019-03-02T05:20:11.811Z,3.80
2019-03-02T05:22:40.458Z,3.20
2019-03-02T05:25:10.159Z,2.87
2019-03-02T05:27:38.731Z,3.00
2019-03-02T05:30:10.429Z,2.87
2019-03-02T05:32:39.023Z,3.07
2019-03-02T05:35:07.730Z,3.00
2019-03-02T05:37:39.102Z,3.03
2019-03-02T05:40:08.917Z,3.47
2019-03-02T05:42:37.497Z,3.30
2019-03-02T05:45:08.804Z,3.10
2019-03-02T05:47:37.381Z,3.20
2019-03-02T05:50:08.482Z,3.17
2019-03-02T05:52:37.064Z,3.53
2019-03-02T05:55:06.662Z,3.10
2019-03-02T05:57:36.908Z,3.17
2019-03-02T06:00:14.240Z,2.87
2019-03-02T06:02:42.886Z,3.10
2019-03-02T06:05:11.536Z,2.90
2019-03-02T06:07:40.101Z,3.00
2019-03-02T06:10:13.579Z,2.73
2019-03-02T06:12:41.793Z,3.30
2019-03-02T06:15:14.555Z,3.00
2019-03-02T06:17:43.209Z,3.40
2019-03-02T06:20:12.712Z,3.10
2019-03-02T06:22:41.371Z,2.90
2019-03-02T06:25:20.254Z,3.40
2019-03-02T06:27:47.278Z,3.40
2019-03-02T06:30:19.481Z,3.60
2019-03-02T06:32:48.063Z,3.40
2019-03-02T06:35:16.691Z,3.67
2019-03-02T06:37:45.276Z,3.50
2019-03-02T06:40:16.169Z,3.67
2019-03-02T06:42:46.722Z,3.40
2019-03-02T06:45:17.624Z,3.90
2019-03-02T06:47:46.282Z,3.63
2019-03-02T06:50:16.945Z,4.27
2019-03-02T06:52:45.526Z,3.77
2019-03-02T06:55:15.121Z,3.73
2019-03-02T06:57:46.257Z,3.90
2019-03-02T07:00:21.546Z,3.90
2019-03-02T07:02:50.264Z,3.47
2019-03-02T07:05:18.891Z,3.83
2019-03-02T07:07:47.474Z,4.10
2019-03-02T07:10:22.154Z,3.60
2019-03-02T07:12:51.334Z,4.00
2019-03-02T07:15:19.971Z,4.00
2019-03-02T07:18:07.995Z,4.60
2019-03-02T07:20:40.734Z,4.83
2019-03-02T07:23:09.320Z,5.63
2019-03-02T07:25:40.781Z,5.57
2019-03-02T07:28:08.118Z,5.13
2019-03-02T07:30:37.155Z,5.37
2019-03-02T07:33:05.728Z,5.67
2019-03-02T07:35:34.381Z,6.30
2019-03-02T07:38:02.938Z,6.80
2019-03-02T07:40:31.602Z,11.57
2019-03-02T07:43:00.161Z,6.83
2019-03-02T07:45:31.382Z,6.60
2019-03-02T07:48:00.184Z,7.07
2019-03-02T07:50:29.743Z,8.03
2019-03-02T07:52:58.678Z,7.63
2019-03-02T07:55:27.334Z,8.03
2019-03-02T07:57:55.899Z,8.10
2019-03-02T08:00:24.591Z,9.60
2019-03-02T08:02:53.218Z,9.83
2019-03-02T08:05:21.870Z,9.70
2019-03-02T08:07:50.506Z,9.57
2019-03-02T08:10:19.163Z,9.97
2019-03-02T08:12:47.745Z,9.77
2019-03-02T08:15:25.788Z,10.33
2019-03-02T08:17:54.527Z,10.07
2019-03-02T08:20:24.556Z,11.00
2019-03-02T08:22:53.403Z,10.67
2019-03-02T08:25:21.987Z,9.60
2019-03-02T08:27:51.431Z,10.93
2019-03-02T08:30:22.344Z,11.57
2019-03-02T08:32:54.091Z,10.77
2019-03-02T08:35:21.225Z,11.73
2019-03-02T08:37:49.855Z,11.00
2019-03-02T08:40:19.315Z,11.30
2019-03-02T08:42:49.114Z,10.33
2019-03-02T08:45:18.733Z,10.67
2019-03-02T08:47:47.306Z,10.40
2019-03-02T08:50:17.615Z,10.43
2019-03-02T08:52:47.266Z,10.57
2019-03-02T08:55:22.779Z,10.67
2019-03-02T08:57:54.064Z,10.80
2019-03-02T09:00:25.648Z,10.97
2019-03-02T09:02:55.066Z,9.97
2019-03-02T09:05:42.837Z,10.30
2019-03-02T09:07:54.726Z,10.67
2019-03-02T09:10:23.901Z,10.73
2019-03-02T09:12:58.042Z,10.53
2019-03-02T09:15:26.451Z,9.37
2019-03-02T09:17:57.657Z,9.57
2019-03-02T09:20:24.689Z,9.50
2019-03-02T09:22:56.429Z,9.57
2019-03-02T09:25:23.793Z,9.17
2019-03-02T09:27:53.760Z,9.50
2019-03-02T09:30:22.583Z,10.00
2019-03-02T09:32:55.535Z,9.10
2019-03-02T09:35:24.121Z,8.13
2019-03-02T09:37:52.685Z,7.97
2019-03-02T09:40:25.139Z,8.37
2019-03-02T09:42:53.927Z,8.50
2019-03-02T09:45:22.858Z,8.23
2019-03-02T09:47:52.198Z,7.63
2019-03-02T09:50:22.039Z,7.40
2019-03-02T09:52:50.662Z,7.10
2019-03-02T09:55:20.320Z,7.03
2019-03-02T09:57:49.480Z,6.57
2019-03-02T10:00:24.056Z,6.97
2019-03-02T10:02:51.512Z,6.27
2019-03-02T10:05:20.324Z,5.57
2019-03-02T10:07:49.226Z,5.70
2019-03-02T10:10:18.436Z,5.87
2019-03-02T10:12:51.011Z,5.60
2019-03-02T10:15:19.850Z,5.60
2019-03-02T10:17:48.434Z,5.20
2019-03-02T10:20:17.011Z,5.10
2019-03-02T10:22:45.567Z,5.37
2019-03-02T10:25:15.191Z,5.13
2019-03-02T10:27:43.821Z,5.30
2019-03-02T10:30:22.164Z,5.80
2019-03-02T10:32:51.998Z,5.57
2019-03-02T10:35:20.618Z,5.40
2019-03-02T10:37:49.183Z,5.63
2019-03-02T10:40:22.961Z,6.17
2019-03-02T10:42:51.366Z,5.60
2019-03-02T10:45:23.207Z,6.70
2019-03-02T10:47:53.830Z,6.60
2019-03-02T10:50:25.131Z,7.17
2019-03-02T10:52:53.787Z,7.70
2019-03-02T10:55:23.287Z,7.60
2019-03-02T10:57:51.918Z,7.43
2019-03-02T11:00:31.099Z,8.57
2019-03-02T11:03:12.742Z,7.80
2019-03-02T11:05:43.082Z,7.97
2019-03-02T11:08:16.513Z,7.80
2019-03-02T11:10:53.316Z,8.47
2019-03-02T11:13:23.654Z,8.67
2019-03-02T11:16:10.151Z,9.50
2019-03-02T11:18:56.390Z,9.33
2019-03-02T11:21:26.654Z,10.10
2019-03-02T11:24:12.923Z,9.47
2019-03-02T11:26:52.093Z,11.67
2019-03-02T11:29:37.153Z,11.07
2019-03-02T11:32:25.321Z,11.10
2019-03-02T11:35:10.641Z,11.30
2019-03-02T11:37:44.084Z,11.37
2019-03-02T11:40:14.298Z,10.53
2019-03-02T11:42:50.333Z,10.57
2019-03-02T11:45:26.630Z,9.07
2019-03-02T11:48:13.124Z,9.17
2019-03-02T11:50:40.938Z,8.90
2019-03-02T11:53:17.089Z,9.57
2019-03-02T11:55:48.366Z,9.40
2019-03-02T11:58:33.707Z,9.37
2019-03-02T12:01:22.099Z,9.17
2019-03-02T12:04:08.362Z,9.67
2019-03-02T12:06:53.686Z,9.57
2019-03-02T12:09:29.861Z,9.70
2019-03-02T12:12:05.526Z,9.20
2019-03-02T12:14:35.816Z,10.27
2019-03-02T12:17:11.931Z,9.83
2019-03-02T12:19:58.158Z,9.33
2019-03-02T12:22:34.546Z,9.47
2019-03-02T12:25:14.603Z,9.07
2019-03-02T12:27:58.933Z,9.17
2019-03-02T12:30:34.029Z,9.17
2019-03-02T12:33:16.987Z,9.77
2019-03-02T12:35:50.611Z,10.10
2019-03-02T12:38:36.045Z,9.23
2019-03-02T12:41:22.368Z,10.43
2019-03-02T12:43:52.955Z,10.30
2019-03-02T12:46:31.808Z,9.53
2019-03-02T12:49:06.981Z,10.20
2019-03-02T12:51:39.416Z,10.17
2019-03-02T12:54:24.908Z,10.43
2019-03-02T12:57:11.142Z,10.73
2019-03-02T12:59:41.346Z,11.07
2019-03-02T13:02:17.671Z,11.03
2019-03-02T13:04:51.458Z,12.73
2019-03-02T13:07:27.453Z,12.07
2019-03-02T13:09:57.828Z,13.07
2019-03-02T13:12:45.757Z,13.63
2019-03-02T13:15:17.725Z,14.17
2019-03-02T13:17:58.683Z,15.27
2019-03-02T13:20:28.642Z,15.60
2019-03-02T13:23:03.037Z,15.10
2019-03-02T13:25:48.810Z,15.93
2019-03-02T13:28:21.739Z,16.53
2019-03-02T13:30:54.759Z,15.90
2019-03-02T13:33:30.082Z,16.30
2019-03-02T13:36:00.437Z,17.53
2019-03-02T13:38:46.974Z,16.00
2019-03-02T13:41:29.844Z,15.67
2019-03-02T13:44:01.968Z,17.07
2019-03-02T13:46:38.927Z,16.17
2019-03-02T13:49:18.123Z,15.83
2019-03-02T13:51:50.734Z,15.83
2019-03-02T13:54:20.962Z,15.73
2019-03-02T13:57:04.799Z,14.97
2019-03-02T13:59:50.854Z,14.63
2019-03-02T14:02:26.903Z,13.33
2019-03-02T14:05:06.863Z,14.60
2019-03-02T14:07:34.541Z,14.10
2019-03-02T14:10:07.842Z,13.70
2019-03-02T14:12:46.986Z,13.93
2019-03-02T14:15:23.109Z,15.00
2019-03-02T14:18:09.642Z,14.50
2019-03-02T14:20:45.856Z,14.83
2019-03-02T14:23:18.828Z,14.87
2019-03-02T14:25:52.038Z,14.17
2019-03-02T14:28:34.892Z,15.57
2019-03-02T14:31:06.491Z,15.03
2019-03-02T14:33:37.009Z,14.70
2019-03-02T14:36:07.434Z,14.63
2019-03-02T14:38:57.291Z,14.13
2019-03-02T14:41:31.326Z,14.40
2019-03-02T14:44:01.562Z,14.47
2019-03-02T14:46:37.733Z,13.77
2019-03-02T14:49:10.913Z,14.00
2019-03-02T14:51:56.667Z,14.73
2019-03-02T14:54:42.946Z,14.33
2019-03-02T14:57:25.716Z,13.73
2019-03-02T15:00:07.632Z,13.67
2019-03-02T15:02:40.549Z,13.27
2019-03-02T15:05:20.265Z,13.50
2019-03-02T15:07:58.867Z,13.80
2019-03-02T15:10:29.477Z,12.60
2019-03-02T15:13:00.038Z,12.77
2019-03-02T15:15:45.155Z,12.30
2019-03-02T15:18:29.203Z,12.80
2019-03-02T15:20:56.196Z,12.90
2019-03-02T15:23:29.350Z,13.47
2019-03-02T15:26:06.257Z,12.77
2019-03-02T15:28:50.109Z,12.40
2019-03-02T15:31:20.334Z,13.33
2019-03-02T15:33:53.286Z,12.73
2019-03-02T15:36:32.577Z,13.03
2019-03-02T15:39:05.278Z,11.97
2019-03-02T15:41:35.510Z,13.00
2019-03-02T15:44:10.764Z,12.27
2019-03-02T15:46:43.722Z,12.37
2019-03-02T15:49:30.151Z,12.57
2019-03-02T15:52:07.741Z,11.60
2019-03-02T15:54:38.140Z,13.43
2019-03-02T15:57:08.507Z,12.80
2019-03-02T15:59:54.711Z,12.47
2019-03-02T16:02:42.123Z,11.27
2019-03-02T16:05:12.389Z,12.13
2019-03-02T16:07:51.602Z,12.10
2019-03-02T16:10:24.371Z,12.17
2019-03-02T16:12:54.593Z,11.20
2019-03-02T16:15:27.860Z,11.90
2019-03-02T16:18:16.528Z,11.83
2019-03-02T16:21:03.818Z,12.00
2019-03-02T16:23:36.650Z,11.27
2019-03-02T16:26:13.095Z,11.93
2019-03-02T16:28:44.475Z,11.23
2019-03-02T16:31:14.775Z,11.83
2019-03-02T16:33:56.791Z,11.90
2019-03-02T16:36:40.262Z,11.40
2019-03-02T16:39:11.102Z,11.60
2019-03-02T16:41:50.464Z,11.97
2019-03-02T16:44:39.322Z,10.93
2019-03-02T16:47:25.354Z,10.77
2019-03-02T16:49:58.486Z,11.43
2019-03-02T16:52:28.730Z,10.90
2019-03-02T16:55:09.608Z,11.80
2019-03-02T16:57:54.666Z,11.27
2019-03-02T17:00:31.559Z,11.40
2019-03-02T17:03:10.503Z,10.07
2019-03-02T17:05:58.970Z,11.57
2019-03-02T17:08:35.288Z,10.77
2019-03-02T17:11:19.770Z,11.13
2019-03-02T17:13:49.997Z,10.13
2019-03-02T17:16:26.177Z,11.47
2019-03-02T17:18:59.527Z,10.77
2019-03-02T17:21:44.730Z,10.27
2019-03-02T17:24:26.949Z,11.00
2019-03-02T17:26:57.158Z,10.73
2019-03-02T17:29:44.983Z,11.33
2019-03-02T17:32:18.802Z,14.33
2019-03-02T17:34:55.156Z,14.13
2019-03-02T17:37:41.146Z,13.10
2019-03-02T17:40:11.681Z,11.97
2019-03-02T17:42:44.927Z,11.77
2019-03-02T17:45:24.008Z,11.67
2019-03-02T17:47:54.237Z,11.77
2019-03-02T17:50:40.666Z,12.50
2019-03-02T17:53:27.335Z,13.07
2019-03-02T17:56:01.019Z,12.20
2019-03-02T17:58:31.427Z,12.43
2019-03-02T18:01:02.378Z,13.53
2019-03-02T18:03:50.803Z,13.73
2019-03-02T18:06:23.867Z,13.07
2019-03-02T18:08:52.886Z,13.00
2019-03-02T18:11:37.617Z,13.00
2019-03-02T18:14:20.116Z,12.47
2019-03-02T18:16:50.433Z,12.27
2019-03-02T18:19:19.021Z,12.20
2019-03-02T18:21:47.659Z,11.43
2019-03-02T18:24:16.251Z,13.23
2019-03-02T18:26:44.809Z,12.40
2019-03-02T18:29:13.580Z,12.20
2019-03-02T18:31:42.215Z,12.30
2019-03-02T18:34:12.515Z,11.70
2019-03-02T18:36:45.697Z,12.40
2019-03-02T18:39:12.352Z,11.37
2019-03-02T18:41:40.993Z,11.37
2019-03-02T18:44:09.586Z,11.47
2019-03-02T18:46:38.195Z,12.90
2019-03-02T18:49:13.866Z,11.63
2019-03-02T18:51:58.292Z,11.77
2019-03-02T18:54:27.317Z,10.67
2019-03-02T18:56:55.951Z,10.97
2019-03-02T18:59:24.536Z,11.20
2019-03-02T19:01:53.103Z,11.40
2019-03-02T19:04:24.888Z,10.57
2019-03-02T19:06:53.499Z,11.50
2019-03-02T19:09:22.099Z,11.83
2019-03-02T19:11:51.358Z,11.50
2019-03-02T19:14:22.154Z,10.90
2019-03-02T19:16:50.976Z,10.57
2019-03-02T19:19:19.560Z,11.70
2019-03-02T19:21:48.175Z,11.30
2019-03-02T19:24:16.768Z,11.20
2019-03-02T19:26:45.338Z,11.60
2019-03-02T19:29:13.930Z,13.33
2019-03-02T19:31:42.566Z,12.23
2019-03-02T19:34:11.134Z,12.93
2019-03-02T19:36:39.719Z,11.93
2019-03-02T19:39:16.326Z,11.97
2019-03-02T19:41:44.922Z,11.40
2019-03-02T19:44:13.814Z,11.63
2019-03-02T19:46:42.410Z,12.37
2019-03-02T19:49:10.978Z,12.03
2019-03-02T19:51:39.566Z,11.43
2019-03-02T19:54:08.131Z,12.83
2019-03-02T19:56:36.717Z,11.80
2019-03-02T19:59:05.275Z,11.90
2019-03-02T20:01:33.865Z,12.13
2019-03-02T20:04:02.501Z,12.57
2019-03-02T20:06:31.199Z,12.20
2019-03-02T20:08:59.711Z,11.10
2019-03-02T20:11:28.306Z,11.93
2019-03-02T20:13:56.932Z,10.70
2019-03-02T20:16:25.513Z,11.40
2019-03-02T20:18:54.096Z,11.07
2019-03-02T20:21:22.683Z,11.40
2019-03-02T20:23:51.246Z,10.97
2019-03-02T20:26:19.842Z,10.83
2019-03-02T20:28:48.393Z,11.77
2019-03-02T20:31:16.991Z,11.27
2019-03-02T20:33:45.554Z,10.87
2019-03-02T20:36:14.142Z,10.90
2019-03-02T20:38:42.703Z,11.53
2019-03-02T20:41:11.358Z,12.47
2019-03-02T20:43:39.930Z,11.13
2019-03-02T20:46:08.518Z,11.73
2019-03-02T20:48:37.083Z,12.00
2019-03-02T20:51:05.738Z,11.57
2019-03-02T20:53:34.302Z,11.30
2019-03-02T20:56:02.894Z,11.43
2019-03-02T20:58:31.454Z,12.67
2019-03-02T21:01:00.046Z,10.90
2019-03-02T21:03:28.614Z,10.87
2019-03-02T21:05:57.250Z,11.07
2019-03-02T21:08:25.859Z,10.93
2019-03-02T21:10:54.952Z,11.30
2019-03-02T21:13:24.079Z,10.83
2019-03-02T21:15:53.059Z,11.23
2019-03-02T21:18:22.230Z,10.43
2019-03-02T21:20:50.862Z,10.73
2019-03-02T21:23:19.418Z,11.20
2019-03-02T21:25:47.995Z,11.13
2019-03-02T21:28:16.578Z,9.47
2019-03-02T21:30:45.137Z,9.33
2019-03-02T21:33:13.731Z,9.47
2019-03-02T21:35:42.297Z,9.53
2019-03-02T21:38:10.888Z,9.07
2019-03-02T21:40:39.446Z,9.30
2019-03-02T21:43:08.034Z,8.20
2019-03-02T21:45:36.590Z,8.87
2019-03-02T21:48:05.243Z,9.13
2019-03-02T21:50:45.702Z,9.10
2019-03-02T21:53:14.299Z,9.00
2019-03-02T21:55:42.859Z,9.00
2019-03-02T21:58:11.444Z,8.87
2019-03-02T22:00:40.147Z,9.40
2019-03-02T22:03:08.815Z,9.47
2019-03-02T22:05:37.843Z,9.97
2019-03-02T22:08:06.427Z,9.67
2019-03-02T22:10:46.649Z,9.43
2019-03-02T22:13:15.306Z,10.10
2019-03-02T22:15:43.952Z,10.30
2019-03-02T22:18:12.545Z,10.83
2019-03-02T22:20:41.103Z,11.07
2019-03-02T22:23:09.692Z,12.00
2019-03-02T22:25:38.255Z,11.33
2019-03-02T22:28:06.856Z,12.80
2019-03-02T22:30:35.414Z,12.73
2019-03-02T22:33:04.140Z,12.93
2019-03-02T22:35:32.773Z,12.40
2019-03-02T22:38:01.371Z,13.17
2019-03-02T22:40:29.934Z,12.87
2019-03-02T22:42:58.522Z,13.57
2019-03-02T22:45:27.158Z,14.63
2019-03-02T22:47:55.747Z,12.93
2019-03-02T22:50:28.198Z,13.97
2019-03-02T22:52:57.254Z,13.70
2019-03-02T22:55:25.821Z,13.43
2019-03-02T22:57:54.458Z,13.03
2019-03-02T23:00:29.049Z,13.13
2019-03-02T23:02:56.654Z,13.00
2019-03-02T23:05:25.282Z,12.30
2019-03-02T23:07:53.850Z,12.23
2019-03-02T23:10:22.436Z,12.27
2019-03-02T23:12:51.005Z,11.53
2019-03-02T23:15:23.438Z,11.60
2019-03-02T23:17:52.074Z,11.53
2019-03-02T23:20:20.663Z,10.70
2019-03-02T23:22:49.231Z,10.30
2019-03-02T23:25:17.821Z,10.30
2019-03-02T23:27:46.389Z,10.13
2019-03-02T23:30:16.987Z,10.27
2019-03-02T23:32:45.691Z,10.37
2019-03-02T23:35:14.417Z,10.50
2019-03-02T23:37:43.125Z,10.67
2019-03-02T23:40:15.999Z,11.37
2019-03-02T23:42:44.633Z,11.17
2019-03-02T23:45:16.704Z,12.13
2019-03-02T23:47:45.412Z,12.03
2019-03-02T23:50:14.952Z,13.03
2019-03-02T23:52:43.550Z,14.37
2019-03-02T23:55:13.154Z,13.17
2019-03-02T23:57:41.719Z,13.70
